sensor_id;sensor_type;location;lat;lon;timestamp;temperature;humidity
10583;DHT22;33679;51.218;6.786;2023-04-01T00:01:25;13.70;99.90
10583;DHT22;33679;51.218;6.786;2023-04-01T00:03:58;13.70;99.90
10583;DHT22;33679;51.218;6.786;2023-04-01T00:06:32;13.60;99.90
10583;DHT22;33679;51.218;6.786;2023-04-01T00:09:08;13.60;99.90
10583;DHT22;33679;51.218;6.786;2023-04-01T00:11:41;13.70;99.90
10583;DHT22;33679;51.218;6.786;2023-04-01T00:14:13;13.70;99.90
10583;DHT22;33679;51.218;6.786;2023-04-01T00:16:47;13.70;99.90
10583;DHT22;33679;51.218;6.786;2023-04-01T00:19:19;13.70;99.90
10583;DHT22;33679;51.218;6.786;2023-04-01T00:21:51;13.70;99.90
10583;DHT22;33679;51.218;6.786;2023-04-01T00:24:24;13.70;99.90
10583;DHT22;33679;51.218;6.786;2023-04-01T00:26:56;13.70;99.90
10583;DHT22;33679;51.218;6.786;2023-04-01T00:29:28;13.70;99.90
10583;DHT22;33679;51.218;6.786;2023-04-01T00:32:03;13.60;99.90
10583;DHT22;33679;51.218;6.786;2023-04-01T00:34:36;13.60;99.90
10583;DHT22;33679;51.218;6.786;2023-04-01T00:37:08;13.70;99.90
10583;DHT22;33679;51.218;6.786;2023-04-01T00:39:40;13.60;99.90
10583;DHT22;33679;51.218;6.786;2023-04-01T00:42:13;13.70;99.90
10583;DHT22;33679;51.218;6.786;2023-04-01T00:44:50;13.70;99.90
10583;DHT22;33679;51.218;6.786;2023-04-01T00:47:27;13.70;99.90
10583;DHT22;33679;51.218;6.786;2023-04-01T00:50:02;13.70;99.90
10583;DHT22;33679;51.218;6.786;2023-04-01T00:52:35;13.70;99.90
10583;DHT22;33679;51.218;6.786;2023-04-01T00:55:11;13.60;99.90
10583;DHT22;33679;51.218;6.786;2023-04-01T00:57:45;13.60;99.90
10583;DHT22;33679;51.218;6.786;2023-04-01T01:00:19;13.50;99.90
10583;DHT22;33679;51.218;6.786;2023-04-01T01:02:55;13.50;99.90
10583;DHT22;33679;51.218;6.786;2023-04-01T01:05:37;13.60;99.90
10583;DHT22;33679;51.218;6.786;2023-04-01T01:08:15;13.60;99.90
10583;DHT22;33679;51.218;6.786;2023-04-01T01:10:50;13.60;99.90
10583;DHT22;33679;51.218;6.786;2023-04-01T01:13:27;13.60;99.90
10583;DHT22;33679;51.218;6.786;2023-04-01T01:16:10;13.60;99.90
10583;DHT22;33679;51.218;6.786;2023-04-01T01:18:53;13.60;99.90
10583;DHT22;33679;51.218;6.786;2023-04-01T01:21:50;13.60;99.90
10583;DHT22;33679;51.218;6.786;2023-04-01T01:24:47;13.60;99.90
10583;DHT22;33679;51.218;6.786;2023-04-01T01:27:23;13.60;99.90
10583;DHT22;33679;51.218;6.786;2023-04-01T01:30:12;13.60;99.90
10583;DHT22;33679;51.218;6.786;2023-04-01T01:33:15;13.60;99.90
10583;DHT22;33679;51.218;6.786;2023-04-01T01:35:53;13.50;99.90
10583;DHT22;33679;51.218;6.786;2023-04-01T01:38:31;13.50;99.90
10583;DHT22;33679;51.218;6.786;2023-04-01T01:41:07;13.50;99.90
10583;DHT22;33679;51.218;6.786;2023-04-01T01:43:43;13.50;99.90
10583;DHT22;33679;51.218;6.786;2023-04-01T01:46:23;13.60;99.90
10583;DHT22;33679;51.218;6.786;2023-04-01T01:48:57;13.60;99.90
10583;DHT22;33679;51.218;6.786;2023-04-01T01:51:33;13.50;99.90
10583;DHT22;33679;51.218;6.786;2023-04-01T01:54:12;13.60;99.90
10583;DHT22;33679;51.218;6.786;2023-04-01T01:56:50;13.60;99.90
10583;DHT22;33679;51.218;6.786;2023-04-01T01:59:24;13.60;99.90
10583;DHT22;33679;51.218;6.786;2023-04-01T02:02:00;13.50;99.90
10583;DHT22;33679;51.218;6.786;2023-04-01T02:04:40;13.60;99.90
10583;DHT22;33679;51.218;6.786;2023-04-01T02:07:19;13.50;99.90
10583;DHT22;33679;51.218;6.786;2023-04-01T02:09:53;13.50;99.90
10583;DHT22;33679;51.218;6.786;2023-04-01T02:12:27;13.50;99.90
10583;DHT22;33679;51.218;6.786;2023-04-01T02:15:04;13.40;99.90
10583;DHT22;33679;51.218;6.786;2023-04-01T02:17:50;13.50;99.90
10583;DHT22;33679;51.218;6.786;2023-04-01T02:20:32;13.50;99.90
10583;DHT22;33679;51.218;6.786;2023-04-01T02:23:19;13.50;99.90
10583;DHT22;33679;51.218;6.786;2023-04-01T02:25:53;13.50;99.90
10583;DHT22;33679;51.218;6.786;2023-04-01T02:28:37;13.50;99.90
10583;DHT22;33679;51.218;6.786;2023-04-01T02:31:13;13.50;99.90
10583;DHT22;33679;51.218;6.786;2023-04-01T02:33:47;13.60;99.90
10583;DHT22;33679;51.218;6.786;2023-04-01T02:36:20;13.50;99.90
10583;DHT22;33679;51.218;6.786;2023-04-01T02:38:55;13.50;99.90
10583;DHT22;33679;51.218;6.786;2023-04-01T02:41:30;13.50;99.90
10583;DHT22;33679;51.218;6.786;2023-04-01T02:44:03;13.50;99.90
10583;DHT22;33679;51.218;6.786;2023-04-01T02:46:36;13.50;99.90
10583;DHT22;33679;51.218;6.786;2023-04-01T02:49:09;13.50;99.90
10583;DHT22;33679;51.218;6.786;2023-04-01T02:51:42;13.40;99.90
10583;DHT22;33679;51.218;6.786;2023-04-01T02:54:16;13.40;99.90
10583;DHT22;33679;51.218;6.786;2023-04-01T02:56:49;13.30;99.90
10583;DHT22;33679;51.218;6.786;2023-04-01T02:59:22;13.20;99.90
10583;DHT22;33679;51.218;6.786;2023-04-01T03:01:55;13.20;99.90
10583;DHT22;33679;51.218;6.786;2023-04-01T03:04:27;13.20;99.90
10583;DHT22;33679;51.218;6.786;2023-04-01T03:07:00;13.20;99.90
10583;DHT22;33679;51.218;6.786;2023-04-01T03:09:34;13.20;99.90
10583;DHT22;33679;51.218;6.786;2023-04-01T03:12:07;13.10;99.90
10583;DHT22;33679;51.218;6.786;2023-04-01T03:14:50;13.10;99.90
10583;DHT22;33679;51.218;6.786;2023-04-01T03:17:25;13.20;99.90
10583;DHT22;33679;51.218;6.786;2023-04-01T03:19:58;13.20;99.90
10583;DHT22;33679;51.218;6.786;2023-04-01T03:22:30;13.20;99.90
10583;DHT22;33679;51.218;6.786;2023-04-01T03:25:05;13.10;99.90
10583;DHT22;33679;51.218;6.786;2023-04-01T03:27:40;13.10;99.90
10583;DHT22;33679;51.218;6.786;2023-04-01T03:30:13;13.10;99.90
10583;DHT22;33679;51.218;6.786;2023-04-01T03:32:54;13.10;99.90
10583;DHT22;33679;51.218;6.786;2023-04-01T03:35:27;13.10;99.90
10583;DHT22;33679;51.218;6.786;2023-04-01T03:38:00;13.10;99.90
10583;DHT22;33679;51.218;6.786;2023-04-01T03:40:33;13.10;99.90
10583;DHT22;33679;51.218;6.786;2023-04-01T03:43:08;13.20;99.90
10583;DHT22;33679;51.218;6.786;2023-04-01T03:45:45;13.20;99.90
10583;DHT22;33679;51.218;6.786;2023-04-01T03:48:18;13.20;99.90
10583;DHT22;33679;51.218;6.786;2023-04-01T03:50:52;13.20;99.90
10583;DHT22;33679;51.218;6.786;2023-04-01T03:53:24;13.20;99.90
10583;DHT22;33679;51.218;6.786;2023-04-01T03:56:05;13.20;99.90
10583;DHT22;33679;51.218;6.786;2023-04-01T03:58:39;13.10;99.90
10583;DHT22;33679;51.218;6.786;2023-04-01T04:01:17;13.10;99.90
10583;DHT22;33679;51.218;6.786;2023-04-01T04:03:52;13.10;99.90
10583;DHT22;33679;51.218;6.786;2023-04-01T04:06:27;13.10;99.90
10583;DHT22;33679;51.218;6.786;2023-04-01T04:08:59;13.10;99.90
10583;DHT22;33679;51.218;6.786;2023-04-01T04:11:36;13.00;99.90
10583;DHT22;33679;51.218;6.786;2023-04-01T04:14:08;13.10;99.90
10583;DHT22;33679;51.218;6.786;2023-04-01T04:16:41;13.10;99.90
10583;DHT22;33679;51.218;6.786;2023-04-01T04:19:14;13.10;99.90
10583;DHT22;33679;51.218;6.786;2023-04-01T04:21:47;13.20;99.90
10583;DHT22;33679;51.218;6.786;2023-04-01T04:24:19;13.20;99.90
10583;DHT22;33679;51.218;6.786;2023-04-01T04:27:08;13.30;99.90
10583;DHT22;33679;51.218;6.786;2023-04-01T04:29:46;13.30;99.90
10583;DHT22;33679;51.218;6.786;2023-04-01T04:32:19;13.30;99.90
10583;DHT22;33679;51.218;6.786;2023-04-01T04:34:52;13.30;99.90
10583;DHT22;33679;51.218;6.786;2023-04-01T04:37:24;13.30;99.90
10583;DHT22;33679;51.218;6.786;2023-04-01T04:39:58;13.30;99.90
10583;DHT22;33679;51.218;6.786;2023-04-01T04:42:32;13.40;99.90
10583;DHT22;33679;51.218;6.786;2023-04-01T04:45:10;13.40;99.90
10583;DHT22;33679;51.218;6.786;2023-04-01T04:47:49;13.40;99.90
10583;DHT22;33679;51.218;6.786;2023-04-01T04:50:22;13.50;99.90
10583;DHT22;33679;51.218;6.786;2023-04-01T04:52:55;13.50;99.90
10583;DHT22;33679;51.218;6.786;2023-04-01T04:55:28;13.50;99.90
10583;DHT22;33679;51.218;6.786;2023-04-01T04:58:20;13.50;99.90
10583;DHT22;33679;51.218;6.786;2023-04-01T05:00:53;13.60;99.90
10583;DHT22;33679;51.218;6.786;2023-04-01T05:03:31;13.60;99.90
10583;DHT22;33679;51.218;6.786;2023-04-01T05:06:05;13.60;99.90
10583;DHT22;33679;51.218;6.786;2023-04-01T05:08:37;13.60;99.90
10583;DHT22;33679;51.218;6.786;2023-04-01T05:11:15;13.60;99.90
10583;DHT22;33679;51.218;6.786;2023-04-01T05:13:49;13.50;99.90
10583;DHT22;33679;51.218;6.786;2023-04-01T05:16:24;13.60;99.90
10583;DHT22;33679;51.218;6.786;2023-04-01T05:18:59;13.50;99.90
10583;DHT22;33679;51.218;6.786;2023-04-01T05:21:31;13.50;99.90
10583;DHT22;33679;51.218;6.786;2023-04-01T05:24:07;13.50;99.90
10583;DHT22;33679;51.218;6.786;2023-04-01T05:26:40;13.50;99.90
10583;DHT22;33679;51.218;6.786;2023-04-01T05:29:14;13.50;99.90
10583;DHT22;33679;51.218;6.786;2023-04-01T05:31:48;13.50;99.90
10583;DHT22;33679;51.218;6.786;2023-04-01T05:34:20;13.40;99.90
10583;DHT22;33679;51.218;6.786;2023-04-01T05:36:53;13.40;99.90
10583;DHT22;33679;51.218;6.786;2023-04-01T05:39:25;13.40;99.90
10583;DHT22;33679;51.218;6.786;2023-04-01T05:41:58;13.40;99.90
10583;DHT22;33679;51.218;6.786;2023-04-01T05:44:32;13.40;99.90
10583;DHT22;33679;51.218;6.786;2023-04-01T05:47:25;13.40;99.90
10583;DHT22;33679;51.218;6.786;2023-04-01T05:49:57;13.40;99.90
10583;DHT22;33679;51.218;6.786;2023-04-01T05:52:30;13.30;99.90
10583;DHT22;33679;51.218;6.786;2023-04-01T05:55:03;13.40;99.90
10583;DHT22;33679;51.218;6.786;2023-04-01T05:57:35;13.40;99.90
10583;DHT22;33679;51.218;6.786;2023-04-01T06:00:12;13.40;99.90
10583;DHT22;33679;51.218;6.786;2023-04-01T06:02:45;13.40;99.90
10583;DHT22;33679;51.218;6.786;2023-04-01T06:05:22;13.40;99.90
10583;DHT22;33679;51.218;6.786;2023-04-01T06:07:59;13.40;99.90
10583;DHT22;33679;51.218;6.786;2023-04-01T06:10:42;13.40;99.90
10583;DHT22;33679;51.218;6.786;2023-04-01T06:13:27;13.50;99.90
10583;DHT22;33679;51.218;6.786;2023-04-01T06:16:12;13.40;99.90
10583;DHT22;33679;51.218;6.786;2023-04-01T06:19:08;13.40;99.90
10583;DHT22;33679;51.218;6.786;2023-04-01T06:22:26;13.40;99.90
10583;DHT22;33679;51.218;6.786;2023-04-01T06:25:14;13.40;99.90
10583;DHT22;33679;51.218;6.786;2023-04-01T06:28:14;13.30;99.90
10583;DHT22;33679;51.218;6.786;2023-04-01T06:30:55;13.40;99.90
10583;DHT22;33679;51.218;6.786;2023-04-01T06:37:00;13.40;99.90
10583;DHT22;33679;51.218;6.786;2023-04-01T06:40:03;13.80;99.90
10583;DHT22;33679;51.218;6.786;2023-04-01T06:43:01;13.80;99.90
10583;DHT22;33679;51.218;6.786;2023-04-01T06:46:10;13.70;99.90
10583;DHT22;33679;51.218;6.786;2023-04-01T06:49:19;13.50;99.90
10583;DHT22;33679;51.218;6.786;2023-04-01T06:52:19;13.50;99.90
10583;DHT22;33679;51.218;6.786;2023-04-01T06:55:23;13.40;99.90
10583;DHT22;33679;51.218;6.786;2023-04-01T06:58:21;13.40;99.90
10583;DHT22;33679;51.218;6.786;2023-04-01T07:00:57;13.40;99.90
10583;DHT22;33679;51.218;6.786;2023-04-01T07:03:33;13.30;99.90
10583;DHT22;33679;51.218;6.786;2023-04-01T07:06:14;13.30;99.90
10583;DHT22;33679;51.218;6.786;2023-04-01T07:08:59;13.30;99.90
10583;DHT22;33679;51.218;6.786;2023-04-01T07:11:50;13.30;99.90
10583;DHT22;33679;51.218;6.786;2023-04-01T07:14:49;13.30;99.90
10583;DHT22;33679;51.218;6.786;2023-04-01T07:17:24;13.30;99.90
10583;DHT22;33679;51.218;6.786;2023-04-01T07:20:03;13.30;99.90
10583;DHT22;33679;51.218;6.786;2023-04-01T07:22:41;13.30;99.90
10583;DHT22;33679;51.218;6.786;2023-04-01T07:25:46;13.40;99.90
10583;DHT22;33679;51.218;6.786;2023-04-01T07:28:46;13.40;99.90
10583;DHT22;33679;51.218;6.786;2023-04-01T07:31:42;13.50;99.90
10583;DHT22;33679;51.218;6.786;2023-04-01T07:34:21;13.50;99.90
10583;DHT22;33679;51.218;6.786;2023-04-01T07:37:02;13.40;99.90
10583;DHT22;33679;51.218;6.786;2023-04-01T07:39:48;13.40;99.90
10583;DHT22;33679;51.218;6.786;2023-04-01T07:42:38;13.50;99.90
10583;DHT22;33679;51.218;6.786;2023-04-01T07:45:20;13.50;99.90
10583;DHT22;33679;51.218;6.786;2023-04-01T07:48:03;13.50;99.90
10583;DHT22;33679;51.218;6.786;2023-04-01T07:50:41;13.50;99.90
10583;DHT22;33679;51.218;6.786;2023-04-01T07:53:23;13.50;99.90
10583;DHT22;33679;51.218;6.786;2023-04-01T07:56:07;13.40;99.90
10583;DHT22;33679;51.218;6.786;2023-04-01T07:58:52;13.40;99.90
10583;DHT22;33679;51.218;6.786;2023-04-01T08:02:08;13.40;99.90
10583;DHT22;33679;51.218;6.786;2023-04-01T08:04:55;13.40;99.90
10583;DHT22;33679;51.218;6.786;2023-04-01T08:07:35;13.30;99.90
10583;DHT22;33679;51.218;6.786;2023-04-01T08:10:39;13.40;99.90
10583;DHT22;33679;51.218;6.786;2023-04-01T08:13:42;13.40;99.90
10583;DHT22;33679;51.218;6.786;2023-04-01T08:16:39;13.50;99.90
10583;DHT22;33679;51.218;6.786;2023-04-01T08:19:34;13.40;99.90
10583;DHT22;33679;51.218;6.786;2023-04-01T08:22:15;13.40;99.90
10583;DHT22;33679;51.218;6.786;2023-04-01T08:24:52;13.40;99.90
10583;DHT22;33679;51.218;6.786;2023-04-01T08:27:35;13.40;99.90
10583;DHT22;33679;51.218;6.786;2023-04-01T08:30:19;13.40;99.90
10583;DHT22;33679;51.218;6.786;2023-04-01T08:32:54;13.40;99.90
10583;DHT22;33679;51.218;6.786;2023-04-01T08:35:31;13.40;99.90
10583;DHT22;33679;51.218;6.786;2023-04-01T08:38:12;13.50;99.90
10583;DHT22;33679;51.218;6.786;2023-04-01T08:41:21;13.50;99.90
10583;DHT22;33679;51.218;6.786;2023-04-01T08:44:39;13.60;99.90
10583;DHT22;33679;51.218;6.786;2023-04-01T08:47:47;13.40;99.90
10583;DHT22;33679;51.218;6.786;2023-04-01T08:50:36;13.40;99.90
10583;DHT22;33679;51.218;6.786;2023-04-01T08:53:42;13.50;99.90
10583;DHT22;33679;51.218;6.786;2023-04-01T08:56:27;13.50;99.90
10583;DHT22;33679;51.218;6.786;2023-04-01T09:02:56;13.60;99.90
10583;DHT22;33679;51.218;6.786;2023-04-01T09:08:50;13.50;99.90
10583;DHT22;33679;51.218;6.786;2023-04-01T09:11:33;13.60;99.90
10583;DHT22;33679;51.218;6.786;2023-04-01T09:14:26;13.60;99.90
10583;DHT22;33679;51.218;6.786;2023-04-01T09:18:01;13.50;99.90
10583;DHT22;33679;51.218;6.786;2023-04-01T09:24:26;13.40;99.90
10583;DHT22;33679;51.218;6.786;2023-04-01T09:27:05;13.40;99.90
10583;DHT22;33679;51.218;6.786;2023-04-01T09:30:19;13.50;99.90
10583;DHT22;33679;51.218;6.786;2023-04-01T09:33:27;13.50;99.90
10583;DHT22;33679;51.218;6.786;2023-04-01T09:36:18;13.60;99.90
10583;DHT22;33679;51.218;6.786;2023-04-01T09:38:56;13.70;99.90
10583;DHT22;33679;51.218;6.786;2023-04-01T09:41:31;13.70;99.90
10583;DHT22;33679;51.218;6.786;2023-04-01T09:44:17;13.70;99.90
10583;DHT22;33679;51.218;6.786;2023-04-01T09:47:26;13.60;99.90
10583;DHT22;33679;51.218;6.786;2023-04-01T09:50:26;13.60;99.90
10583;DHT22;33679;51.218;6.786;2023-04-01T09:53:15;13.60;99.90
10583;DHT22;33679;51.218;6.786;2023-04-01T09:56:17;13.60;99.90
10583;DHT22;33679;51.218;6.786;2023-04-01T09:59:34;13.60;99.90
10583;DHT22;33679;51.218;6.786;2023-04-01T10:06:31;13.60;99.90
10583;DHT22;33679;51.218;6.786;2023-04-01T10:20:01;14.00;99.90
10583;DHT22;33679;51.218;6.786;2023-04-01T10:23:03;13.90;99.90
10583;DHT22;33679;51.218;6.786;2023-04-01T10:26:20;13.90;99.90
10583;DHT22;33679;51.218;6.786;2023-04-01T10:36:13;13.90;99.90
10583;DHT22;33679;51.218;6.786;2023-04-01T10:43:12;13.80;99.90
10583;DHT22;33679;51.218;6.786;2023-04-01T10:46:49;13.80;99.90
10583;DHT22;33679;51.218;6.786;2023-04-01T10:49:46;13.80;99.90
10583;DHT22;33679;51.218;6.786;2023-04-01T10:53:04;13.80;99.90
10583;DHT22;33679;51.218;6.786;2023-04-01T11:00:02;13.80;99.90
10583;DHT22;33679;51.218;6.786;2023-04-01T11:10:25;13.80;99.90
10583;DHT22;33679;51.218;6.786;2023-04-01T11:16:42;13.90;99.90
10583;DHT22;33679;51.218;6.786;2023-04-01T11:19:56;13.90;99.90
10583;DHT22;33679;51.218;6.786;2023-04-01T11:22:56;13.90;99.90
10583;DHT22;33679;51.218;6.786;2023-04-01T11:25:56;13.90;99.90
10583;DHT22;33679;51.218;6.786;2023-04-01T11:29:06;13.90;99.90
10583;DHT22;33679;51.218;6.786;2023-04-01T11:31:54;13.80;99.90
10583;DHT22;33679;51.218;6.786;2023-04-01T11:34:55;13.80;99.90
10583;DHT22;33679;51.218;6.786;2023-04-01T11:37:36;13.90;99.90
10583;DHT22;33679;51.218;6.786;2023-04-01T11:40:45;13.90;99.90
10583;DHT22;33679;51.218;6.786;2023-04-01T11:43:42;13.90;99.90
10583;DHT22;33679;51.218;6.786;2023-04-01T11:46:33;14.10;99.90
10583;DHT22;33679;51.218;6.786;2023-04-01T11:49:29;14.10;99.90
10583;DHT22;33679;51.218;6.786;2023-04-01T11:52:47;14.20;99.90
10583;DHT22;33679;51.218;6.786;2023-04-01T11:55:45;14.20;99.90
10583;DHT22;33679;51.218;6.786;2023-04-01T11:58:42;14.20;99.90
10583;DHT22;33679;51.218;6.786;2023-04-01T12:01:26;14.10;99.90
10583;DHT22;33679;51.218;6.786;2023-04-01T12:07:16;14.20;99.90
10583;DHT22;33679;51.218;6.786;2023-04-01T12:09:58;14.10;99.90
10583;DHT22;33679;51.218;6.786;2023-04-01T12:12:40;14.10;99.90
10583;DHT22;33679;51.218;6.786;2023-04-01T12:15:21;14.10;99.90
10583;DHT22;33679;51.218;6.786;2023-04-01T12:18:03;14.20;99.90
10583;DHT22;33679;51.218;6.786;2023-04-01T12:20:49;14.20;99.90
10583;DHT22;33679;51.218;6.786;2023-04-01T12:23:48;14.20;99.90
10583;DHT22;33679;51.218;6.786;2023-04-01T12:26:43;14.20;99.90
10583;DHT22;33679;51.218;6.786;2023-04-01T12:29:37;14.20;99.90
10583;DHT22;33679;51.218;6.786;2023-04-01T12:32:19;14.10;99.90
10583;DHT22;33679;51.218;6.786;2023-04-01T12:35:02;14.20;99.90
10583;DHT22;33679;51.218;6.786;2023-04-01T12:37:44;14.20;99.90
10583;DHT22;33679;51.218;6.786;2023-04-01T12:40:31;14.30;99.90
10583;DHT22;33679;51.218;6.786;2023-04-01T12:43:32;14.30;99.90
10583;DHT22;33679;51.218;6.786;2023-04-01T12:46:13;14.30;99.90
10583;DHT22;33679;51.218;6.786;2023-04-01T12:52:14;14.40;99.90
10583;DHT22;33679;51.218;6.786;2023-04-01T12:58:22;14.40;99.90
10583;DHT22;33679;51.218;6.786;2023-04-01T13:01:29;14.50;99.90
10583;DHT22;33679;51.218;6.786;2023-04-01T13:05:01;14.60;99.90
10583;DHT22;33679;51.218;6.786;2023-04-01T13:08:08;14.70;99.90
10583;DHT22;33679;51.218;6.786;2023-04-01T13:10:53;14.60;99.90
10583;DHT22;33679;51.218;6.786;2023-04-01T13:14:00;14.60;99.90
10583;DHT22;33679;51.218;6.786;2023-04-01T13:16:39;14.60;99.90
10583;DHT22;33679;51.218;6.786;2023-04-01T13:19:25;14.60;99.90
10583;DHT22;33679;51.218;6.786;2023-04-01T13:22:07;14.50;99.90
10583;DHT22;33679;51.218;6.786;2023-04-01T13:24:52;14.50;99.90
10583;DHT22;33679;51.218;6.786;2023-04-01T13:27:34;14.50;99.90
10583;DHT22;33679;51.218;6.786;2023-04-01T13:30:30;14.50;99.90
10583;DHT22;33679;51.218;6.786;2023-04-01T13:33:13;14.50;99.90
10583;DHT22;33679;51.218;6.786;2023-04-01T13:39:23;14.60;99.90
10583;DHT22;33679;51.218;6.786;2023-04-01T13:42:24;14.50;99.90
10583;DHT22;33679;51.218;6.786;2023-04-01T13:45:09;14.50;99.90
10583;DHT22;33679;51.218;6.786;2023-04-01T13:48:20;14.40;99.90
10583;DHT22;33679;51.218;6.786;2023-04-01T13:57:34;14.50;99.90
10583;DHT22;33679;51.218;6.786;2023-04-01T14:00:32;14.60;99.90
10583;DHT22;33679;51.218;6.786;2023-04-01T14:03:28;14.50;99.90
10583;DHT22;33679;51.218;6.786;2023-04-01T14:06:09;14.50;99.90
10583;DHT22;33679;51.218;6.786;2023-04-01T14:11:47;14.50;99.90
10583;DHT22;33679;51.218;6.786;2023-04-01T14:14:35;14.60;99.90
10583;DHT22;33679;51.218;6.786;2023-04-01T14:17:27;14.60;99.90
10583;DHT22;33679;51.218;6.786;2023-04-01T14:20:47;14.70;99.90
10583;DHT22;33679;51.218;6.786;2023-04-01T14:23:40;14.70;99.90
10583;DHT22;33679;51.218;6.786;2023-04-01T14:26:26;14.80;99.90
10583;DHT22;33679;51.218;6.786;2023-04-01T14:29:16;14.80;99.90
10583;DHT22;33679;51.218;6.786;2023-04-01T14:31:58;14.80;99.90
10583;DHT22;33679;51.218;6.786;2023-04-01T14:34:47;14.80;99.90
10583;DHT22;33679;51.218;6.786;2023-04-01T14:37:40;14.80;99.90
10583;DHT22;33679;51.218;6.786;2023-04-01T14:40:33;14.90;99.90
10583;DHT22;33679;51.218;6.786;2023-04-01T14:44:14;14.90;99.90
10583;DHT22;33679;51.218;6.786;2023-04-01T14:50:13;14.90;99.90
10583;DHT22;33679;51.218;6.786;2023-04-01T14:53:12;14.90;99.90
10583;DHT22;33679;51.218;6.786;2023-04-01T14:55:55;15.00;99.90
10583;DHT22;33679;51.218;6.786;2023-04-01T14:58:50;15.00;99.90
10583;DHT22;33679;51.218;6.786;2023-04-01T15:02:00;14.90;99.90
10583;DHT22;33679;51.218;6.786;2023-04-01T15:04:44;15.00;99.90
10583;DHT22;33679;51.218;6.786;2023-04-01T15:08:03;14.90;99.90
10583;DHT22;33679;51.218;6.786;2023-04-01T15:11:07;14.90;99.90
10583;DHT22;33679;51.218;6.786;2023-04-01T15:14:01;14.80;99.90
10583;DHT22;33679;51.218;6.786;2023-04-01T15:16:51;14.70;99.90
10583;DHT22;33679;51.218;6.786;2023-04-01T15:19:36;14.70;99.90
10583;DHT22;33679;51.218;6.786;2023-04-01T15:25:32;14.70;99.90
10583;DHT22;33679;51.218;6.786;2023-04-01T15:28:21;14.70;99.90
10583;DHT22;33679;51.218;6.786;2023-04-01T15:31:02;14.70;99.90
10583;DHT22;33679;51.218;6.786;2023-04-01T15:33:52;14.70;99.90
10583;DHT22;33679;51.218;6.786;2023-04-01T15:36:32;14.60;99.90
10583;DHT22;33679;51.218;6.786;2023-04-01T15:39:14;14.50;99.90
10583;DHT22;33679;51.218;6.786;2023-04-01T15:42:04;14.50;99.90
10583;DHT22;33679;51.218;6.786;2023-04-01T15:44:51;14.40;99.90
10583;DHT22;33679;51.218;6.786;2023-04-01T15:47:37;14.40;99.90
10583;DHT22;33679;51.218;6.786;2023-04-01T15:50:45;14.40;99.90
10583;DHT22;33679;51.218;6.786;2023-04-01T15:53:41;14.30;99.90
10583;DHT22;33679;51.218;6.786;2023-04-01T15:56:28;14.30;99.90
10583;DHT22;33679;51.218;6.786;2023-04-01T15:59:24;14.20;99.90
10583;DHT22;33679;51.218;6.786;2023-04-01T16:02:09;14.30;99.90
10583;DHT22;33679;51.218;6.786;2023-04-01T16:04:50;14.20;99.90
10583;DHT22;33679;51.218;6.786;2023-04-01T16:07:43;14.30;99.90
10583;DHT22;33679;51.218;6.786;2023-04-01T16:10:38;14.30;99.90
10583;DHT22;33679;51.218;6.786;2023-04-01T16:13:28;14.30;99.90
10583;DHT22;33679;51.218;6.786;2023-04-01T16:16:13;14.20;99.90
10583;DHT22;33679;51.218;6.786;2023-04-01T16:19:03;14.20;99.90
10583;DHT22;33679;51.218;6.786;2023-04-01T16:21:44;14.20;99.90
10583;DHT22;33679;51.218;6.786;2023-04-01T16:24:24;14.20;99.90
10583;DHT22;33679;51.218;6.786;2023-04-01T16:27:02;14.20;99.90
10583;DHT22;33679;51.218;6.786;2023-04-01T16:29:43;14.10;99.90
10583;DHT22;33679;51.218;6.786;2023-04-01T16:32:31;14.20;99.90
10583;DHT22;33679;51.218;6.786;2023-04-01T16:40:36;14.20;99.90
10583;DHT22;33679;51.218;6.786;2023-04-01T16:43:39;14.30;99.90
10583;DHT22;33679;51.218;6.786;2023-04-01T16:46:40;14.30;99.90
10583;DHT22;33679;51.218;6.786;2023-04-01T16:49:32;14.30;99.90
10583;DHT22;33679;51.218;6.786;2023-04-01T16:52:16;14.30;99.90
10583;DHT22;33679;51.218;6.786;2023-04-01T16:54:53;14.30;99.90
10583;DHT22;33679;51.218;6.786;2023-04-01T16:57:31;14.30;99.90
10583;DHT22;33679;51.218;6.786;2023-04-01T17:00:17;14.30;99.90
10583;DHT22;33679;51.218;6.786;2023-04-01T17:03:03;14.20;99.90
10583;DHT22;33679;51.218;6.786;2023-04-01T17:05:43;14.30;99.90
10583;DHT22;33679;51.218;6.786;2023-04-01T17:08:29;14.30;99.90
10583;DHT22;33679;51.218;6.786;2023-04-01T17:11:11;14.30;99.90
10583;DHT22;33679;51.218;6.786;2023-04-01T17:13:54;14.30;99.90
10583;DHT22;33679;51.218;6.786;2023-04-01T17:16:48;14.30;99.90
10583;DHT22;33679;51.218;6.786;2023-04-01T17:19:33;14.20;99.90
10583;DHT22;33679;51.218;6.786;2023-04-01T17:22:22;14.30;99.90
10583;DHT22;33679;51.218;6.786;2023-04-01T17:25:24;14.20;99.90
10583;DHT22;33679;51.218;6.786;2023-04-01T17:28:09;14.20;99.90
10583;DHT22;33679;51.218;6.786;2023-04-01T17:30:49;14.20;99.90
10583;DHT22;33679;51.218;6.786;2023-04-01T17:33:42;14.20;99.90
10583;DHT22;33679;51.218;6.786;2023-04-01T17:36:29;14.20;99.90
10583;DHT22;33679;51.218;6.786;2023-04-01T17:39:19;14.20;99.90
10583;DHT22;33679;51.218;6.786;2023-04-01T17:41:58;14.20;99.90
10583;DHT22;33679;51.218;6.786;2023-04-01T17:44:49;14.10;99.90
10583;DHT22;33679;51.218;6.786;2023-04-01T17:47:35;14.10;99.90
10583;DHT22;33679;51.218;6.786;2023-04-01T17:50:27;14.10;99.90
10583;DHT22;33679;51.218;6.786;2023-04-01T17:53:18;14.10;99.90
10583;DHT22;33679;51.218;6.786;2023-04-01T17:56:13;14.10;99.90
10583;DHT22;33679;51.218;6.786;2023-04-01T17:58:50;14.00;99.90
10583;DHT22;33679;51.218;6.786;2023-04-01T18:01:44;14.00;99.90
10583;DHT22;33679;51.218;6.786;2023-04-01T18:07:53;14.00;99.90
10583;DHT22;33679;51.218;6.786;2023-04-01T18:10:31;14.00;99.90
10583;DHT22;33679;51.218;6.786;2023-04-01T18:19:29;13.90;99.90
10583;DHT22;33679;51.218;6.786;2023-04-01T18:22:17;13.90;99.90
10583;DHT22;33679;51.218;6.786;2023-04-01T18:24:58;13.90;99.90
10583;DHT22;33679;51.218;6.786;2023-04-01T18:27:37;13.90;99.90
10583;DHT22;33679;51.218;6.786;2023-04-01T18:30:14;13.90;99.90
10583;DHT22;33679;51.218;6.786;2023-04-01T18:32:50;13.90;99.90
10583;DHT22;33679;51.218;6.786;2023-04-01T18:35:47;13.80;99.90
10583;DHT22;33679;51.218;6.786;2023-04-01T18:38:26;13.80;99.90
10583;DHT22;33679;51.218;6.786;2023-04-01T18:41:14;13.80;99.90
10583;DHT22;33679;51.218;6.786;2023-04-01T18:43:57;13.70;99.90
10583;DHT22;33679;51.218;6.786;2023-04-01T18:46:45;13.70;99.90
10583;DHT22;33679;51.218;6.786;2023-04-01T18:49:23;13.70;99.90
10583;DHT22;33679;51.218;6.786;2023-04-01T18:52:10;13.70;99.90
10583;DHT22;33679;51.218;6.786;2023-04-01T18:55:14;13.70;99.90
10583;DHT22;33679;51.218;6.786;2023-04-01T18:57:49;13.70;99.90
10583;DHT22;33679;51.218;6.786;2023-04-01T19:00:28;13.70;99.90
10583;DHT22;33679;51.218;6.786;2023-04-01T19:03:10;13.70;99.90